createdAt,value
2023-02-17T00:01:39.208Z,12.02
2023-02-17T00:04:06.150Z,12.55
2023-02-17T00:06:33.280Z,11.90
2023-02-17T00:09:00.686Z,11.75
2023-02-17T00:11:28.618Z,10.43
2023-02-17T00:13:56.597Z,10.32
2023-02-17T00:16:26.752Z,12.02
2023-02-17T00:18:59.236Z,11.55
2023-02-17T00:21:29.126Z,13.05
2023-02-17T00:23:57.811Z,11.80
2023-02-17T00:26:24.856Z,12.10
2023-02-17T00:28:51.804Z,11.82
2023-02-17T00:31:21.620Z,12.20
2023-02-17T00:33:49.019Z,12.23
2023-02-17T00:36:19.446Z,11.63
2023-02-17T00:38:49.925Z,10.23
2023-02-17T00:41:18.493Z,10.82
2023-02-17T00:43:46.170Z,10.93
2023-02-17T00:46:13.502Z,9.10
2023-02-17T00:48:41.013Z,9.25
2023-02-17T00:51:08.971Z,9.00
2023-02-17T00:53:36.298Z,8.48
2023-02-17T00:56:04.395Z,8.02
2023-02-17T00:58:31.569Z,8.00
2023-02-17T01:00:59.335Z,8.43
2023-02-17T01:03:27.028Z,8.27
2023-02-17T01:05:55.173Z,7.30
2023-02-17T01:08:23.390Z,8.30
2023-02-17T01:10:52.761Z,7.30
2023-02-17T01:13:19.935Z,6.43
2023-02-17T01:15:52.485Z,6.93
2023-02-17T01:18:23.274Z,6.50
2023-02-17T01:20:51.513Z,6.65
2023-02-17T01:23:18.797Z,7.50
2023-02-17T01:25:47.742Z,8.52
2023-02-17T01:28:19.845Z,8.88
2023-02-17T01:30:47.542Z,7.63
2023-02-17T01:33:14.804Z,9.05
2023-02-17T01:35:42.009Z,10.00
2023-02-17T01:38:09.199Z,8.57
2023-02-17T01:40:36.429Z,9.75
2023-02-17T01:43:03.757Z,9.43
2023-02-17T01:45:38.695Z,11.48
2023-02-17T01:48:13.022Z,9.68
2023-02-17T01:50:46.942Z,10.48
2023-02-17T01:53:17.867Z,9.55
2023-02-17T01:55:46.733Z,9.65
2023-02-17T01:58:18.043Z,10.32
2023-02-17T02:00:49.061Z,9.65
2023-02-17T02:03:16.576Z,11.15
2023-02-17T02:05:44.033Z,10.32
2023-02-17T02:08:13.260Z,11.68
2023-02-17T02:10:40.368Z,11.90
2023-02-17T02:13:08.263Z,11.93
2023-02-17T02:15:42.799Z,11.80
2023-02-17T02:18:34.966Z,11.23
2023-02-17T02:21:20.116Z,12.15
2023-02-17T02:24:09.768Z,13.27
2023-02-17T02:27:00.864Z,14.48
2023-02-17T02:30:00.208Z,13.20
2023-02-17T02:32:42.639Z,13.02
2023-02-17T02:35:31.457Z,12.90
2023-02-17T02:38:18.315Z,15.70
2023-02-17T02:40:50.321Z,12.60
2023-02-17T02:43:17.470Z,13.30
2023-02-17T02:45:45.030Z,11.68
2023-02-17T02:48:11.998Z,12.90
2023-02-17T02:50:59.228Z,13.13
2023-02-17T02:53:43.501Z,13.30
2023-02-17T02:56:22.635Z,11.05
2023-02-17T02:59:16.753Z,13.10
2023-02-17T03:02:12.274Z,13.35
2023-02-17T03:04:48.001Z,14.50
2023-02-17T03:07:21.705Z,13.93
2023-02-17T03:09:52.011Z,13.85
2023-02-17T03:12:19.919Z,12.95
2023-02-17T03:14:50.221Z,11.80
2023-02-17T03:17:17.916Z,13.13
2023-02-17T03:19:49.440Z,11.52
2023-02-17T03:22:30.738Z,12.80
2023-02-17T03:25:00.175Z,12.13
2023-02-17T03:27:28.083Z,12.88
2023-02-17T03:29:55.775Z,11.82
2023-02-17T03:32:22.940Z,12.63
2023-02-17T03:34:49.934Z,10.57
2023-02-17T03:37:17.656Z,10.38
2023-02-17T03:39:44.660Z,10.20
2023-02-17T03:42:14.338Z,10.57
2023-02-17T03:44:41.366Z,11.18
2023-02-17T03:47:08.453Z,11.50
2023-02-17T03:49:35.424Z,11.73
2023-02-17T03:52:02.299Z,10.70
2023-02-17T03:54:29.281Z,10.65
2023-02-17T03:56:56.526Z,10.73
2023-02-17T03:59:23.677Z,10.73
2023-02-17T04:01:50.721Z,10.13
2023-02-17T04:04:17.768Z,9.10
2023-02-17T04:06:44.871Z,8.50
2023-02-17T04:09:11.986Z,10.50
2023-02-17T04:11:39.042Z,9.07
2023-02-17T04:14:06.038Z,9.07
2023-02-17T04:16:33.299Z,9.35
2023-02-17T04:19:00.222Z,9.18
2023-02-17T04:21:27.189Z,8.77
2023-02-17T04:23:55.252Z,8.65
2023-02-17T04:26:22.252Z,8.30
2023-02-17T04:28:49.180Z,8.60
2023-02-17T04:31:16.323Z,7.85
2023-02-17T04:33:43.279Z,9.40
2023-02-17T04:36:11.571Z,9.32
2023-02-17T04:38:39.452Z,8.15
2023-02-17T04:41:07.062Z,10.75
2023-02-17T04:43:34.247Z,9.50
2023-02-17T04:46:01.097Z,9.95
2023-02-17T04:48:28.588Z,9.38
2023-02-17T04:50:55.745Z,10.00
2023-02-17T04:53:22.795Z,10.65
2023-02-17T04:55:51.857Z,11.07
2023-02-17T04:58:19.660Z,11.75
2023-02-17T05:00:48.326Z,13.02
2023-02-17T05:03:15.920Z,13.15
2023-02-17T05:05:42.933Z,12.88
2023-02-17T05:08:10.156Z,14.05
2023-02-17T05:10:37.162Z,13.35
2023-02-17T05:13:04.369Z,14.65
2023-02-17T05:15:33.145Z,15.30
2023-02-17T05:18:02.065Z,15.13
2023-02-17T05:20:29.551Z,14.40
2023-02-17T05:22:56.535Z,17.88
2023-02-17T05:25:23.559Z,15.02
2023-02-17T05:27:50.579Z,15.13
2023-02-17T05:30:17.628Z,14.40
2023-02-17T05:32:47.185Z,12.70
2023-02-17T05:35:14.196Z,15.30
2023-02-17T05:37:41.261Z,14.10
2023-02-17T05:40:09.050Z,14.40
2023-02-17T05:42:36.195Z,12.93
2023-02-17T05:45:03.744Z,14.13
2023-02-17T05:47:30.776Z,15.45
2023-02-17T05:49:57.705Z,14.85
2023-02-17T05:52:24.626Z,13.98
2023-02-17T05:54:51.533Z,15.10
2023-02-17T05:57:18.562Z,14.60
2023-02-17T05:59:45.584Z,13.77
2023-02-17T06:02:12.582Z,14.60
2023-02-17T06:04:39.705Z,14.82
2023-02-17T06:07:06.661Z,14.95
2023-02-17T06:09:33.616Z,15.32
2023-02-17T06:12:00.637Z,14.90
2023-02-17T06:14:27.663Z,14.57
2023-02-17T06:16:57.068Z,16.50
2023-02-17T06:19:24.447Z,16.58
2023-02-17T06:21:51.568Z,14.32
2023-02-17T06:24:18.496Z,14.10
2023-02-17T06:26:45.383Z,13.80
2023-02-17T06:29:12.476Z,15.13
2023-02-17T06:31:39.962Z,15.45
2023-02-17T06:34:07.020Z,13.82
2023-02-17T06:36:34.035Z,14.40
2023-02-17T06:39:01.214Z,14.60
2023-02-17T06:41:28.175Z,14.57
2023-02-17T06:43:55.032Z,14.38
2023-02-17T06:46:22.319Z,14.25
2023-02-17T06:48:49.342Z,14.68
2023-02-17T06:51:16.332Z,14.13
2023-02-17T06:53:43.275Z,14.35
2023-02-17T06:56:10.264Z,14.38
2023-02-17T06:58:38.059Z,13.38
2023-02-17T07:01:05.547Z,13.88
2023-02-17T07:03:32.827Z,13.32
2023-02-17T07:06:00.501Z,13.98
2023-02-17T07:08:27.513Z,13.85
2023-02-17T07:10:55.675Z,14.30
2023-02-17T07:13:22.671Z,14.15
2023-02-17T07:15:49.565Z,14.32
2023-02-17T07:18:16.823Z,14.45
2023-02-17T07:20:43.776Z,14.52
2023-02-17T07:23:10.796Z,14.05
2023-02-17T07:25:37.918Z,13.50
2023-02-17T07:28:05.076Z,13.70
2023-02-17T07:30:32.068Z,13.50
2023-02-17T07:32:59.026Z,12.68
2023-02-17T07:35:26.027Z,13.88
2023-02-17T07:37:52.968Z,14.40
2023-02-17T07:40:20.020Z,13.38
2023-02-17T07:42:47.094Z,14.02
2023-02-17T07:45:14.217Z,12.70
2023-02-17T07:47:41.285Z,13.13
2023-02-17T07:50:08.965Z,15.10
2023-02-17T07:52:35.968Z,14.45
2023-02-17T07:55:03.488Z,12.63
2023-02-17T07:57:30.963Z,13.05
2023-02-17T07:59:57.883Z,13.45
2023-02-17T08:02:24.922Z,13.13
2023-02-17T08:04:52.743Z,14.10
2023-02-17T08:07:19.918Z,14.45
2023-02-17T08:10:05.417Z,15.27
2023-02-17T08:12:50.682Z,14.73
2023-02-17T08:15:17.711Z,15.40
2023-02-17T08:17:44.589Z,14.65
2023-02-17T08:20:13.699Z,14.13
2023-02-17T08:22:40.733Z,13.93
2023-02-17T08:25:07.868Z,12.60
2023-02-17T08:27:34.862Z,15.18
2023-02-17T08:30:02.176Z,12.30
2023-02-17T08:32:29.229Z,13.25
2023-02-17T08:34:57.298Z,12.20
2023-02-17T08:37:24.979Z,11.20
2023-02-17T08:39:52.061Z,12.02
2023-02-17T08:42:20.034Z,12.07
2023-02-17T08:44:47.192Z,11.13
2023-02-17T08:47:14.241Z,10.07
2023-02-17T08:49:41.406Z,9.80
2023-02-17T08:52:08.638Z,8.27
2023-02-17T08:54:38.648Z,10.63
2023-02-17T08:57:06.094Z,9.98
2023-02-17T08:59:33.009Z,10.13
2023-02-17T09:02:02.983Z,8.52
2023-02-17T09:04:30.289Z,9.68
2023-02-17T09:07:01.368Z,8.93
2023-02-17T09:09:31.697Z,9.15
2023-02-17T09:11:59.347Z,8.80
2023-02-17T09:14:26.687Z,8.13
2023-02-17T09:16:54.783Z,8.95
2023-02-17T09:19:23.043Z,7.93
2023-02-17T09:21:50.196Z,7.53
2023-02-17T09:24:18.396Z,7.15
2023-02-17T09:26:45.699Z,7.75
2023-02-17T09:29:12.774Z,7.40
2023-02-17T09:31:40.038Z,7.65
2023-02-17T09:34:09.502Z,6.95
2023-02-17T09:36:41.636Z,7.45
2023-02-17T09:39:12.305Z,7.50
2023-02-17T09:41:47.912Z,6.35
2023-02-17T09:44:26.070Z,6.85
2023-02-17T09:47:06.905Z,6.00
2023-02-17T09:49:42.438Z,6.13
2023-02-17T09:52:17.202Z,4.95
2023-02-17T09:55:06.472Z,5.97
2023-02-17T09:57:45.795Z,5.65
2023-02-17T10:00:26.028Z,5.32
2023-02-17T10:02:59.677Z,6.10
2023-02-17T10:05:33.443Z,5.55
2023-02-17T10:08:12.500Z,5.50
2023-02-17T10:11:01.505Z,5.82
2023-02-17T10:13:32.401Z,5.47
2023-02-17T10:16:06.008Z,6.00
2023-02-17T10:18:47.666Z,5.88
2023-02-17T10:21:22.225Z,4.80
2023-02-17T10:23:51.335Z,4.93
2023-02-17T10:26:53.591Z,5.00
2023-02-17T10:29:46.694Z,4.53
2023-02-17T10:32:13.908Z,3.72
2023-02-17T10:34:53.174Z,4.35
2023-02-17T10:37:58.710Z,5.25
2023-02-17T10:40:28.038Z,4.40
2023-02-17T10:42:58.852Z,4.60
2023-02-17T10:45:42.091Z,4.80
2023-02-17T10:48:23.502Z,4.32
2023-02-17T10:50:51.336Z,4.03
2023-02-17T10:53:20.601Z,4.25
2023-02-17T10:55:54.641Z,4.18
2023-02-17T10:58:36.612Z,4.68
2023-02-17T11:01:06.268Z,5.10
2023-02-17T11:03:34.482Z,4.18
2023-02-17T11:06:05.157Z,4.75
2023-02-17T11:08:44.535Z,3.92
2023-02-17T11:11:25.656Z,4.72
2023-02-17T11:14:31.137Z,4.65
2023-02-17T11:17:13.307Z,5.10
2023-02-17T11:19:40.465Z,5.10
2023-02-17T11:22:30.012Z,5.47
2023-02-17T11:25:19.570Z,5.38
2023-02-17T11:28:19.464Z,5.15
2023-02-17T11:30:52.927Z,5.22
2023-02-17T11:36:39.150Z,4.88
2023-02-17T11:39:23.612Z,4.68
2023-02-17T11:41:50.881Z,5.65
2023-02-17T11:44:26.799Z,6.32
2023-02-17T11:47:09.108Z,5.75
2023-02-17T11:49:51.572Z,5.40
2023-02-17T11:55:19.178Z,6.30
2023-02-17T11:58:12.461Z,5.85
2023-02-17T12:00:57.756Z,6.47
2023-02-17T12:04:09.586Z,5.80
2023-02-17T12:07:18.603Z,5.28
2023-02-17T12:10:07.332Z,6.20
2023-02-17T12:13:27.665Z,5.82
2023-02-17T12:16:38.601Z,5.90
2023-02-17T12:19:55.249Z,6.15
2023-02-17T12:22:59.556Z,5.97
2023-02-17T12:26:11.947Z,5.53
2023-02-17T12:28:52.053Z,5.25
2023-02-17T12:31:41.754Z,5.55
2023-02-17T12:34:20.930Z,6.03
2023-02-17T12:36:56.681Z,6.57
2023-02-17T12:39:42.474Z,6.13
2023-02-17T12:42:45.894Z,6.43
2023-02-17T12:45:23.919Z,6.70
2023-02-17T12:47:56.782Z,6.72
2023-02-17T12:51:19.231Z,6.90
2023-02-17T12:54:25.981Z,6.95
2023-02-17T12:57:09.012Z,6.28
2023-02-17T13:00:00.218Z,7.25
2023-02-17T13:02:29.352Z,6.03
2023-02-17T13:05:01.792Z,6.43
2023-02-17T13:10:29.886Z,6.22
2023-02-17T13:13:11.763Z,6.45
2023-02-17T13:15:43.203Z,5.20
2023-02-17T13:18:31.676Z,5.47
2023-02-17T13:21:15.916Z,4.80
2023-02-17T13:24:13.020Z,5.40
2023-02-17T13:26:59.548Z,5.60
2023-02-17T13:30:05.067Z,5.88
2023-02-17T13:32:48.020Z,6.03
2023-02-17T13:35:26.819Z,5.78
2023-02-17T13:38:02.940Z,5.53
2023-02-17T13:40:32.216Z,5.00
2023-02-17T13:43:19.257Z,5.55
2023-02-17T13:46:05.709Z,5.97
2023-02-17T13:48:35.493Z,5.25
2023-02-17T13:51:05.193Z,6.03
2023-02-17T13:53:38.228Z,5.20
2023-02-17T13:56:27.244Z,5.07
2023-02-17T13:58:54.897Z,5.55
2023-02-17T14:01:43.949Z,4.88
2023-02-17T14:04:46.261Z,5.22
2023-02-17T14:07:13.300Z,4.97
2023-02-17T14:09:42.471Z,4.80
2023-02-17T14:12:23.545Z,4.20
2023-02-17T14:14:50.799Z,4.65
2023-02-17T14:17:32.950Z,4.00
2023-02-17T14:20:03.225Z,4.38
2023-02-17T14:22:39.567Z,4.72
2023-02-17T14:25:13.774Z,4.00
2023-02-17T14:27:50.244Z,3.97
2023-02-17T14:31:02.705Z,4.18
2023-02-17T14:33:29.974Z,3.80
2023-02-17T14:36:04.107Z,4.18
2023-02-17T14:38:36.661Z,4.30
2023-02-17T14:41:05.205Z,4.15
2023-02-17T14:43:45.991Z,4.97
2023-02-17T14:46:14.461Z,4.07
2023-02-17T14:48:41.637Z,4.30
2023-02-17T14:51:14.318Z,3.63
2023-02-17T14:53:41.966Z,3.85
2023-02-17T14:56:19.963Z,3.90
2023-02-17T14:58:47.894Z,3.72
2023-02-17T15:01:17.891Z,4.38
2023-02-17T15:03:48.319Z,3.92
2023-02-17T15:06:58.905Z,4.05
2023-02-17T15:10:01.052Z,4.55
2023-02-17T15:12:31.391Z,4.47
2023-02-17T15:15:04.304Z,4.03
2023-02-17T15:17:34.279Z,3.42
2023-02-17T15:20:08.670Z,3.80
2023-02-17T15:22:55.434Z,4.50
2023-02-17T15:25:33.299Z,4.35
2023-02-17T15:28:04.581Z,5.00
2023-02-17T15:30:44.582Z,4.38
2023-02-17T15:38:27.961Z,4.43
2023-02-17T15:41:03.121Z,3.70
2023-02-17T15:46:11.500Z,4.22
2023-02-17T15:48:47.173Z,4.80
2023-02-17T15:54:40.140Z,3.92
2023-02-17T15:57:08.094Z,4.40
2023-02-17T15:59:41.751Z,4.78
2023-02-17T16:08:29.539Z,4.90
2023-02-17T16:11:25.032Z,4.55
2023-02-17T16:14:00.595Z,4.35
2023-02-17T16:16:32.852Z,4.45
2023-02-17T16:21:28.014Z,5.18
2023-02-17T16:23:59.845Z,4.68
2023-02-17T16:26:35.996Z,5.35
2023-02-17T16:29:19.024Z,4.95
2023-02-17T16:31:57.139Z,4.90
2023-02-17T16:34:26.150Z,4.90
2023-02-17T16:36:57.628Z,4.75
2023-02-17T16:39:25.002Z,4.90
2023-02-17T16:42:58.808Z,5.38
2023-02-17T16:45:21.875Z,4.68
2023-02-17T16:47:56.107Z,4.57
2023-02-17T16:50:34.169Z,5.13
2023-02-17T16:53:04.789Z,5.40
2023-02-17T16:55:34.460Z,5.07
2023-02-17T16:58:02.821Z,4.63
2023-02-17T17:00:32.476Z,4.68
2023-02-17T17:02:59.843Z,4.25
2023-02-17T17:05:29.074Z,4.43
2023-02-17T17:08:27.964Z,4.03
2023-02-17T17:10:55.179Z,4.88
2023-02-17T17:13:46.267Z,4.68
2023-02-17T17:16:16.224Z,4.47
2023-02-17T17:18:49.041Z,4.32
2023-02-17T17:21:24.053Z,4.70
2023-02-17T17:24:09.544Z,5.70
2023-02-17T17:29:49.009Z,4.90
2023-02-17T17:32:16.421Z,4.78
2023-02-17T17:34:44.161Z,5.25
2023-02-17T17:37:11.234Z,4.53
2023-02-17T17:39:39.693Z,4.97
2023-02-17T17:42:06.674Z,5.00
2023-02-17T17:44:36.206Z,5.13
2023-02-17T17:47:03.919Z,6.32
2023-02-17T17:49:31.074Z,5.40
2023-02-17T17:51:58.438Z,5.40
2023-02-17T17:54:25.543Z,5.85
2023-02-17T17:56:52.702Z,5.47
2023-02-17T17:59:20.063Z,5.40
2023-02-17T18:01:52.996Z,5.38
2023-02-17T18:04:29.197Z,5.55
2023-02-17T18:07:04.991Z,6.13
2023-02-17T18:10:01.453Z,6.40
2023-02-17T18:12:48.012Z,5.88
2023-02-17T18:15:19.261Z,6.68
2023-02-17T18:18:28.497Z,7.00
2023-02-17T18:21:16.188Z,6.47
2023-02-17T18:23:46.329Z,5.40
2023-02-17T18:26:16.317Z,5.80
2023-02-17T18:28:59.013Z,5.00
2023-02-17T18:31:28.681Z,5.70
2023-02-17T18:33:57.049Z,8.15
2023-02-17T18:36:29.325Z,8.13
2023-02-17T18:38:56.531Z,8.82
2023-02-17T18:41:29.866Z,11.38
2023-02-17T18:44:00.892Z,12.73
2023-02-17T18:46:33.327Z,11.02
2023-02-17T18:49:00.894Z,11.68
2023-02-17T18:51:28.148Z,10.68
2023-02-17T18:54:02.627Z,10.68
2023-02-17T18:56:32.710Z,8.95
2023-02-17T18:59:00.222Z,9.95
2023-02-17T19:01:45.828Z,10.02
2023-02-17T19:04:21.685Z,9.43
2023-02-17T19:06:48.865Z,11.30
2023-02-17T19:09:17.313Z,10.88
2023-02-17T19:11:46.260Z,9.52
2023-02-17T19:14:15.943Z,9.57
2023-02-17T19:16:45.476Z,9.43
2023-02-17T19:19:42.527Z,8.45
2023-02-17T19:22:13.433Z,8.45
2023-02-17T19:24:41.965Z,10.45
2023-02-17T19:27:13.297Z,11.07
2023-02-17T19:32:48.202Z,10.23
2023-02-17T19:35:15.371Z,9.88
2023-02-17T19:37:42.515Z,10.80
2023-02-17T19:40:10.159Z,10.32
2023-02-17T19:42:37.509Z,11.13
2023-02-17T19:45:04.687Z,11.18
2023-02-17T19:47:31.901Z,10.23
2023-02-17T19:50:02.037Z,10.65
2023-02-17T19:52:29.165Z,11.18
2023-02-17T19:55:01.672Z,11.70
2023-02-17T19:57:32.103Z,11.48
2023-02-17T20:00:08.977Z,11.63
2023-02-17T20:02:36.941Z,12.70
2023-02-17T20:05:04.731Z,13.05
2023-02-17T20:07:32.002Z,13.20
2023-02-17T20:10:02.333Z,12.90
2023-02-17T20:12:29.666Z,14.30
2023-02-17T20:14:59.319Z,14.40
2023-02-17T20:17:28.557Z,14.20
2023-02-17T20:19:56.028Z,13.18
2023-02-17T20:22:28.372Z,15.20
2023-02-17T20:25:05.771Z,15.63
2023-02-17T20:27:33.531Z,15.13
2023-02-17T20:36:25.277Z,14.60
2023-02-17T20:39:22.934Z,13.50
2023-02-17T20:41:50.382Z,12.63
2023-02-17T20:44:18.190Z,15.00
2023-02-17T20:46:45.904Z,16.10
2023-02-17T20:49:14.974Z,14.88
2023-02-17T20:51:42.156Z,15.05
2023-02-17T20:54:09.404Z,16.48
2023-02-17T20:56:39.246Z,17.08
2023-02-17T20:59:08.975Z,17.90
2023-02-17T21:01:36.822Z,17.13
2023-02-17T21:04:03.721Z,18.13
2023-02-17T21:06:33.987Z,17.17
2023-02-17T21:09:04.894Z,16.58
2023-02-17T21:11:33.480Z,17.00
2023-02-17T21:14:03.008Z,17.75
2023-02-17T21:16:31.443Z,15.63
2023-02-17T21:18:59.786Z,14.02
2023-02-17T21:21:27.986Z,16.73
2023-02-17T21:23:58.025Z,17.08
2023-02-17T21:26:25.650Z,16.77
2023-02-17T21:28:52.901Z,17.10
2023-02-17T21:31:20.422Z,17.85
2023-02-17T21:33:47.870Z,19.13
2023-02-17T21:36:28.993Z,18.67
2023-02-17T21:39:17.476Z,21.13
2023-02-17T21:41:44.589Z,19.58
2023-02-17T21:44:31.625Z,19.23
2023-02-17T21:46:58.875Z,16.88
2023-02-17T21:49:26.092Z,17.65
2023-02-17T21:52:08.880Z,16.92
2023-02-17T21:54:44.701Z,17.35
2023-02-17T21:57:34.072Z,17.35
2023-02-17T22:01:54.361Z,17.98
2023-02-17T22:04:22.292Z,19.08
2023-02-17T22:06:52.451Z,18.95
2023-02-17T22:09:19.673Z,17.88
2023-02-17T22:11:49.497Z,18.65
2023-02-17T22:14:20.977Z,16.95
2023-02-17T22:16:49.115Z,16.63
2023-02-17T22:19:31.367Z,17.10
2023-02-17T22:24:49.645Z,18.55
2023-02-17T22:27:20.042Z,17.70
2023-02-17T22:29:47.809Z,18.42
2023-02-17T22:32:14.921Z,17.50
2023-02-17T22:34:42.026Z,16.15
2023-02-17T22:37:09.015Z,17.85
2023-02-17T22:39:35.974Z,20.40
2023-02-17T22:42:04.492Z,20.10
2023-02-17T22:44:40.564Z,19.60
2023-02-17T22:47:07.641Z,19.83
2023-02-17T22:49:34.614Z,17.95
2023-02-17T22:52:01.620Z,19.73
2023-02-17T22:54:30.833Z,19.67
2023-02-17T22:56:57.903Z,17.10
2023-02-17T22:59:25.048Z,15.50
2023-02-17T23:01:52.054Z,16.13
2023-02-17T23:04:19.232Z,14.55
2023-02-17T23:06:46.146Z,15.02
2023-02-17T23:09:17.060Z,16.50
2023-02-17T23:11:50.223Z,16.98
2023-02-17T23:14:30.875Z,15.70
2023-02-17T23:17:01.570Z,16.95
2023-02-17T23:19:29.633Z,16.60
2023-02-17T23:21:59.595Z,14.40
2023-02-17T23:24:27.446Z,15.80
2023-02-17T23:26:56.668Z,15.70
2023-02-17T23:29:24.314Z,14.88
2023-02-17T23:31:51.420Z,16.75
2023-02-17T23:34:18.738Z,16.45
2023-02-17T23:36:46.724Z,17.92
2023-02-17T23:39:15.403Z,18.33
2023-02-17T23:41:42.962Z,16.73
2023-02-17T23:44:12.073Z,15.18
2023-02-17T23:46:40.171Z,15.70
2023-02-17T23:49:07.294Z,14.52
2023-02-17T23:51:34.327Z,14.95
2023-02-17T23:54:01.421Z,15.90
2023-02-17T23:56:34.158Z,17.67
2023-02-17T23:59:01.695Z,17.50
